createdAt,value
2023-01-17T00:00:42.462Z,0
2023-01-17T00:01:42.027Z,0
2023-01-17T00:02:42.258Z,0
2023-01-17T00:03:42.166Z,0
2023-01-17T00:04:41.953Z,0
2023-01-17T00:05:42.285Z,0
2023-01-17T00:06:41.423Z,0
2023-01-17T00:07:42.156Z,0
2023-01-17T00:08:41.992Z,0
2023-01-17T00:09:41.860Z,0
2023-01-17T00:10:42.113Z,0
2023-01-17T00:11:41.852Z,0
2023-01-17T00:12:41.823Z,0
2023-01-17T00:13:42.026Z,0
2023-01-17T00:14:41.783Z,0
2023-01-17T00:15:41.573Z,0
2023-01-17T00:16:41.499Z,0
2023-01-17T00:17:41.485Z,0
2023-01-17T00:19:10.949Z,0
2023-01-17T00:19:40.910Z,0
2023-01-17T00:20:41.683Z,0
2023-01-17T00:21:42.010Z,0
2023-01-17T00:22:41.631Z,0
2023-01-17T00:23:41.624Z,0
2023-01-17T00:24:41.853Z,0
2023-01-17T00:25:41.841Z,0
2023-01-17T00:26:41.273Z,0
2023-01-17T00:27:41.528Z,0
2023-01-17T00:28:41.582Z,0
2023-01-17T00:29:40.974Z,0
2023-01-17T00:30:41.458Z,0
2023-01-17T00:31:41.922Z,0
2023-01-17T00:32:41.216Z,0
2023-01-17T00:33:41.212Z,0
2023-01-17T00:34:41.655Z,0
2023-01-17T00:35:41.465Z,0
2023-01-17T00:36:40.589Z,0
2023-01-17T00:37:41.842Z,0
2023-01-17T00:38:41.405Z,0
2023-01-17T00:39:40.775Z,0
2023-01-17T00:40:41.081Z,0
2023-01-17T00:41:41.009Z,0
2023-01-17T00:42:41.003Z,0
2023-01-17T00:43:41.218Z,0
2023-01-17T00:44:41.203Z,0
2023-01-17T00:45:40.935Z,0
2023-01-17T00:46:41.622Z,0
2023-01-17T00:47:40.658Z,0
2023-01-17T00:48:41.141Z,0
2023-01-17T00:49:41.440Z,0
2023-01-17T00:50:41.126Z,0
2023-01-17T00:51:40.821Z,0
2023-01-17T00:52:41.057Z,0
2023-01-17T00:53:41.418Z,0
2023-01-17T00:54:41.004Z,0
2023-01-17T00:55:40.754Z,0
2023-01-17T00:56:40.979Z,0
2023-01-17T00:57:40.713Z,0
2023-01-17T00:58:41.181Z,0
2023-01-17T00:59:40.657Z,0
2023-01-17T01:00:41.542Z,0
2023-01-17T01:01:41.401Z,0
2023-01-17T01:02:41.230Z,0
2023-01-17T01:03:40.329Z,0
2023-01-17T01:04:41.080Z,0
2023-01-17T01:05:40.585Z,0
2023-01-17T01:06:40.822Z,0
2023-01-17T01:07:40.751Z,0
2023-01-17T01:08:41.046Z,0
2023-01-17T01:09:41.081Z,0
2023-01-17T01:10:40.458Z,0
2023-01-17T01:11:40.760Z,0
2023-01-17T01:12:40.417Z,0
2023-01-17T01:13:40.905Z,0
2023-01-17T01:14:40.610Z,0
2023-01-17T01:15:40.356Z,0
2023-01-17T01:16:41.168Z,0
2023-01-17T01:17:40.333Z,0
2023-01-17T01:18:40.308Z,0
2023-01-17T01:19:40.515Z,0
2023-01-17T01:20:40.528Z,0
2023-01-17T01:21:40.842Z,0
2023-01-17T01:22:41.014Z,0
2023-01-17T01:23:40.198Z,0
2023-01-17T01:24:40.438Z,0
2023-01-17T01:25:40.799Z,0
2023-01-17T01:26:40.666Z,0
2023-01-17T01:27:40.131Z,0
2023-01-17T01:28:40.609Z,0
2023-01-17T01:29:40.357Z,0
2023-01-17T01:30:40.369Z,0
2023-01-17T01:31:40.118Z,0
2023-01-17T01:32:39.761Z,0
2023-01-17T01:34:40.081Z,0
2023-01-17T01:35:40.475Z,0
2023-01-17T01:36:40.454Z,0
2023-01-17T01:37:40.194Z,0
2023-01-17T01:38:40.183Z,0
2023-01-17T01:39:40.400Z,0
2023-01-17T01:40:40.136Z,0
2023-01-17T01:41:40.588Z,0
2023-01-17T01:42:40.080Z,0
2023-01-17T01:43:40.087Z,0
2023-01-17T01:44:40.282Z,0
2023-01-17T01:45:40.668Z,0
2023-01-17T01:46:40.014Z,0
2023-01-17T01:47:39.731Z,0
2023-01-17T01:48:39.721Z,0
2023-01-17T01:49:39.953Z,0
2023-01-17T01:50:39.949Z,0
2023-01-17T01:51:39.956Z,0
2023-01-17T01:52:40.135Z,0
2023-01-17T01:53:39.644Z,0
2023-01-17T01:54:39.390Z,0
2023-01-17T01:55:39.873Z,0
2023-01-17T01:56:39.624Z,0
2023-01-17T01:57:40.143Z,0
2023-01-17T01:58:40.054Z,0
2023-01-17T01:59:40.000Z,0
2023-01-17T02:00:40.178Z,0
2023-01-17T02:01:40.467Z,0
2023-01-17T02:02:39.455Z,0
2023-01-17T02:03:40.040Z,0
2023-01-17T02:04:39.650Z,0
2023-01-17T02:05:39.376Z,0
2023-01-17T02:06:39.885Z,0
2023-01-17T02:07:39.855Z,0
2023-01-17T02:08:39.819Z,0
2023-01-17T02:09:39.817Z,0
2023-01-17T02:10:39.826Z,0
2023-01-17T02:11:39.792Z,0
2023-01-17T02:12:39.762Z,0
2023-01-17T02:13:39.823Z,0
2023-01-17T02:14:39.191Z,0
2023-01-17T02:15:39.604Z,0
2023-01-17T02:16:39.714Z,0
2023-01-17T02:17:39.820Z,0
2023-01-17T02:18:39.554Z,0
2023-01-17T02:19:39.270Z,0
2023-01-17T02:20:39.814Z,0
2023-01-17T02:21:39.489Z,0
2023-01-17T02:22:39.465Z,0
2023-01-17T02:23:38.960Z,0
2023-01-17T02:24:39.437Z,0
2023-01-17T02:25:39.162Z,0
2023-01-17T02:26:39.597Z,0
2023-01-17T02:27:38.860Z,0
2023-01-17T02:28:39.334Z,0
2023-01-17T02:29:39.757Z,0
2023-01-17T02:30:39.353Z,0
2023-01-17T02:31:39.834Z,0
2023-01-17T02:32:39.265Z,0
2023-01-17T02:33:39.281Z,0
2023-01-17T02:34:38.995Z,0
2023-01-17T02:35:39.249Z,0
2023-01-17T02:36:38.948Z,0
2023-01-17T02:37:38.657Z,0
2023-01-17T02:38:39.196Z,0
2023-01-17T02:39:39.160Z,0
2023-01-17T02:40:38.854Z,0
2023-01-17T02:41:39.368Z,0
2023-01-17T02:42:39.354Z,0
2023-01-17T02:43:39.068Z,0
2023-01-17T02:44:39.274Z,0
2023-01-17T02:45:39.748Z,0
2023-01-17T02:46:38.723Z,0
2023-01-17T02:47:38.982Z,0
2023-01-17T02:48:39.271Z,0
2023-01-17T02:49:38.683Z,0
2023-01-17T02:50:39.268Z,0
2023-01-17T02:51:38.908Z,0
2023-01-17T02:52:38.622Z,0
2023-01-17T02:53:38.841Z,0
2023-01-17T02:54:38.837Z,0
2023-01-17T02:55:38.828Z,0
2023-01-17T02:56:41.082Z,0
2023-01-17T02:57:38.775Z,0
2023-01-17T02:58:39.038Z,0
2023-01-17T02:59:38.477Z,0
2023-01-17T03:00:38.761Z,0
2023-01-17T03:01:39.910Z,0
2023-01-17T03:02:39.076Z,0
2023-01-17T03:03:38.757Z,0
2023-01-17T03:04:38.389Z,0
2023-01-17T03:05:38.643Z,0
2023-01-17T03:06:38.606Z,0
2023-01-17T03:07:38.607Z,0
2023-01-17T03:08:38.324Z,0
2023-01-17T03:09:38.580Z,0
2023-01-17T03:10:38.797Z,0
2023-01-17T03:11:38.761Z,0
2023-01-17T03:12:38.508Z,0
2023-01-17T03:13:38.503Z,0
2023-01-17T03:14:38.252Z,0
2023-01-17T03:15:38.672Z,0
2023-01-17T03:16:39.008Z,0
2023-01-17T03:17:38.839Z,0
2023-01-17T03:18:38.406Z,0
2023-01-17T03:19:37.842Z,0
2023-01-17T03:20:38.591Z,0
2023-01-17T03:21:38.591Z,0
2023-01-17T03:22:38.305Z,0
2023-01-17T03:23:38.266Z,0
2023-01-17T03:24:38.262Z,0
2023-01-17T03:25:38.271Z,0
2023-01-17T03:26:38.457Z,0
2023-01-17T03:27:38.490Z,0
2023-01-17T03:28:38.429Z,0
2023-01-17T03:29:37.919Z,0
2023-01-17T03:30:38.548Z,0
2023-01-17T03:31:38.184Z,0
2023-01-17T03:32:38.369Z,0
2023-01-17T03:50:00.060Z,0
2023-01-17T03:50:59.890Z,0
2023-01-17T03:51:59.351Z,0
2023-01-17T03:52:59.830Z,0
2023-01-17T03:53:59.837Z,0
2023-01-17T03:54:59.825Z,0
2023-01-17T03:55:59.018Z,0
2023-01-17T03:56:59.761Z,0
2023-01-17T03:57:59.489Z,0
2023-01-17T03:58:59.470Z,0
2023-01-17T03:59:59.539Z,0
2023-01-17T04:00:59.655Z,0
2023-01-17T04:01:59.995Z,0
2023-01-17T04:02:59.669Z,0
2023-01-17T04:03:59.647Z,0
2023-01-17T04:04:58.828Z,0
2023-01-17T04:05:59.933Z,0
2023-01-17T04:06:59.040Z,0
2023-01-17T04:08:01.542Z,0
2023-01-17T04:09:00.327Z,0
2023-01-17T04:10:00.330Z,0
2023-01-17T04:10:59.756Z,0
2023-01-17T04:12:00.068Z,0
2023-01-17T04:12:59.491Z,0
2023-01-17T04:14:00.351Z,0
2023-01-17T04:15:00.219Z,0
2023-01-17T04:15:59.718Z,0
2023-01-17T04:17:00.057Z,0
2023-01-17T04:17:59.891Z,0
2023-01-17T04:18:59.621Z,0
2023-01-17T04:19:59.841Z,0
2023-01-17T04:20:59.316Z,0
2023-01-17T04:22:00.207Z,0
2023-01-17T04:22:59.804Z,0
2023-01-17T04:23:59.785Z,0
2023-01-17T04:24:59.763Z,0
2023-01-17T04:25:59.726Z,0
2023-01-17T04:26:59.470Z,0
2023-01-17T04:27:59.951Z,0
2023-01-17T04:28:59.965Z,0
2023-01-17T04:30:00.528Z,0
2023-01-17T04:31:00.839Z,0
2023-01-17T04:32:00.737Z,0
2023-01-17T04:33:00.440Z,0
2023-01-17T04:34:00.538Z,0
2023-01-17T04:35:00.403Z,0
2023-01-17T04:36:00.408Z,0
2023-01-17T04:37:00.137Z,0
2023-01-17T04:38:00.732Z,0
2023-01-17T04:39:00.590Z,0
2023-01-17T04:40:00.356Z,0
2023-01-17T04:41:00.549Z,0
2023-01-17T04:42:00.280Z,0
2023-01-17T04:43:00.518Z,0
2023-01-17T04:44:00.524Z,0
2023-01-17T04:45:00.205Z,0
2023-01-17T04:46:00.608Z,0
2023-01-17T04:47:00.427Z,0
2023-01-17T04:48:00.159Z,0
2023-01-17T04:49:00.154Z,0
2023-01-17T04:50:00.396Z,0
2023-01-17T04:51:00.115Z,0
2023-01-17T04:52:00.502Z,0
2023-01-17T04:53:00.457Z,0
2023-01-17T04:54:00.843Z,0
2023-01-17T04:55:00.444Z,0
2023-01-17T04:56:00.390Z,0
2023-01-17T04:57:00.417Z,0
2023-01-17T04:58:00.611Z,0
2023-01-17T04:59:00.328Z,0
2023-01-17T05:00:00.602Z,0
2023-01-17T05:01:00.621Z,0
2023-01-17T05:02:00.342Z,0
2023-01-17T05:03:00.655Z,0
2023-01-17T05:04:00.487Z,0
2023-01-17T05:04:59.438Z,0
2023-01-17T05:06:00.460Z,0
2023-01-17T05:07:00.168Z,0
2023-01-17T05:07:59.941Z,0
2023-01-17T05:08:59.877Z,0
2023-01-17T05:10:00.485Z,0
2023-01-17T05:11:00.128Z,0
2023-01-17T05:12:00.088Z,0
2023-01-17T05:12:59.816Z,0
2023-01-17T05:13:59.778Z,0
2023-01-17T05:14:59.759Z,0
2023-01-17T05:16:00.507Z,0
2023-01-17T05:16:59.980Z,0
2023-01-17T05:18:00.005Z,0
2023-01-17T05:18:59.917Z,0
2023-01-17T05:19:59.930Z,0
2023-01-17T05:21:00.173Z,0
2023-01-17T05:21:59.889Z,0
2023-01-17T05:23:00.190Z,0
2023-01-17T05:23:59.582Z,0
2023-01-17T05:24:59.557Z,0
2023-01-17T05:26:00.200Z,0
2023-01-17T05:27:00.016Z,0
2023-01-17T05:27:59.773Z,0
2023-01-17T05:29:00.002Z,0
2023-01-17T05:29:59.774Z,0
2023-01-17T05:30:59.752Z,0
2023-01-17T05:31:59.449Z,0
2023-01-17T05:32:59.970Z,0
2023-01-17T05:33:59.383Z,0
2023-01-17T05:34:59.116Z,0
2023-01-17T05:35:59.379Z,0
2023-01-17T05:36:59.867Z,0
2023-01-17T05:37:59.331Z,0
2023-01-17T05:38:59.293Z,0
2023-01-17T05:39:59.511Z,0
2023-01-17T05:40:59.503Z,0
2023-01-17T05:41:59.883Z,0
2023-01-17T05:42:59.516Z,0
2023-01-17T05:43:59.473Z,0
2023-01-17T05:44:59.171Z,0
2023-01-17T05:45:59.944Z,0
2023-01-17T05:46:59.662Z,0
2023-01-17T05:47:59.632Z,0
2023-01-17T05:48:59.133Z,0
2023-01-17T05:49:59.329Z,0
2023-01-17T05:50:59.859Z,0
2023-01-17T05:52:02.122Z,0
2023-01-17T05:52:59.790Z,0
2023-01-17T05:53:59.770Z,0
2023-01-17T05:55:00.020Z,0
2023-01-17T05:55:59.978Z,0
2023-01-17T05:56:59.731Z,0
2023-01-17T05:58:00.159Z,0
2023-01-17T05:58:59.412Z,0
2023-01-17T05:59:59.450Z,0
2023-01-17T06:00:59.872Z,0
2023-01-17T06:01:59.613Z,0
2023-01-17T06:03:00.030Z,0
2023-01-17T06:03:59.585Z,0
2023-01-17T06:05:01.324Z,0
2023-01-17T06:05:59.682Z,0
2023-01-17T06:06:59.779Z,0
2023-01-17T06:07:58.745Z,0
2023-01-17T06:08:59.227Z,0
2023-01-17T06:09:59.461Z,0
2023-01-17T06:10:59.201Z,0
2023-01-17T06:11:59.406Z,0
2023-01-17T06:12:59.387Z,0
2023-01-17T06:13:59.785Z,0
2023-01-17T06:14:59.614Z,0
2023-01-17T06:16:00.021Z,0
2023-01-17T06:16:59.323Z,0
2023-01-17T06:17:59.582Z,0
2023-01-17T06:18:59.368Z,0
2023-01-17T06:19:59.545Z,0
2023-01-17T06:20:59.291Z,0
2023-01-17T06:21:58.976Z,0
2023-01-17T06:22:58.961Z,0
2023-01-17T06:23:59.452Z,0
2023-01-17T06:24:58.898Z,0
2023-01-17T06:25:59.147Z,0
2023-01-17T06:26:59.376Z,0
2023-01-17T06:27:59.646Z,0
2023-01-17T06:28:59.913Z,0
2023-01-17T06:30:00.324Z,0
2023-01-17T06:31:00.331Z,0
2023-01-17T06:32:01.785Z,0
2023-01-17T06:32:59.813Z,0
2023-01-17T06:33:59.574Z,0
2023-01-17T06:34:59.765Z,0
2023-01-17T06:35:59.587Z,0
2023-01-17T06:36:59.733Z,0
2023-01-17T06:37:59.689Z,0
2023-01-17T06:38:59.931Z,0
2023-01-17T06:39:59.536Z,0
2023-01-17T06:40:59.887Z,0
2023-01-17T06:41:59.385Z,0
2023-01-17T06:42:59.857Z,0
2023-01-17T06:43:59.579Z,0
2023-01-17T06:44:59.312Z,0
2023-01-17T06:46:01.160Z,0
2023-01-17T06:46:59.489Z,0
2023-01-17T06:47:59.512Z,0
2023-01-17T06:48:59.474Z,0
2023-01-17T06:49:59.487Z,0
2023-01-17T06:50:59.208Z,0
2023-01-17T06:51:59.429Z,0
2023-01-17T06:52:59.142Z,0
2023-01-17T06:53:59.444Z,0
2023-01-17T06:54:59.370Z,0
2023-01-17T06:55:59.632Z,0
2023-01-17T06:56:59.304Z,0
2023-01-17T06:57:59.432Z,0
2023-01-17T06:58:58.776Z,0
2023-01-17T06:59:59.546Z,0
2023-01-17T07:01:00.089Z,0
2023-01-17T07:01:59.758Z,0
2023-01-17T07:02:59.207Z,0
2023-01-17T07:03:59.509Z,0
2023-01-17T07:04:59.156Z,0
2023-01-17T07:05:59.075Z,0
2023-01-17T07:06:59.290Z,0
2023-01-17T07:07:59.240Z,0
2023-01-17T07:08:59.009Z,0
2023-01-17T07:09:59.220Z,0
2023-01-17T07:10:59.463Z,0
2023-01-17T07:11:59.462Z,0
2023-01-17T07:12:59.411Z,0
2023-01-17T07:13:58.881Z,0
2023-01-17T07:14:59.159Z,0
2023-01-17T07:15:59.351Z,0
2023-01-17T07:16:58.833Z,0
2023-01-17T07:17:59.514Z,0
2023-01-17T07:18:59.043Z,0
2023-01-17T07:19:59.278Z,5
2023-01-17T07:20:58.993Z,5
2023-01-17T07:21:59.247Z,5
2023-01-17T07:22:58.727Z,5
2023-01-17T07:23:58.945Z,5
2023-01-17T07:24:58.949Z,5
2023-01-17T07:25:58.901Z,5
2023-01-17T07:26:58.889Z,5
2023-01-17T07:27:58.865Z,5
2023-01-17T07:28:58.590Z,5
2023-01-17T07:30:01.404Z,5
2023-01-17T07:30:58.852Z,5
2023-01-17T07:31:59.040Z,5
2023-01-17T07:32:58.796Z,5
2023-01-17T07:33:59.130Z,5
2023-01-17T07:34:58.219Z,5
2023-01-17T07:35:58.217Z,10
2023-01-17T07:36:58.433Z,10
2023-01-17T07:37:58.154Z,10
2023-01-17T07:38:58.912Z,10
2023-01-17T07:39:58.872Z,15
2023-01-17T07:40:58.629Z,10
2023-01-17T07:41:58.845Z,10
2023-01-17T07:42:58.827Z,10
2023-01-17T07:44:01.104Z,15
2023-01-17T07:44:58.795Z,15
2023-01-17T07:45:59.939Z,10
2023-01-17T07:46:58.386Z,10
2023-01-17T07:47:58.454Z,15
2023-01-17T07:48:57.934Z,15
2023-01-17T07:49:58.839Z,15
2023-01-17T07:50:58.701Z,15
2023-01-17T07:51:58.411Z,15
2023-01-17T07:52:58.609Z,20
2023-01-17T07:53:58.345Z,25
2023-01-17T07:54:58.603Z,20
2023-01-17T07:55:58.580Z,25
2023-01-17T07:56:58.091Z,25
2023-01-17T07:57:58.530Z,25
2023-01-17T07:58:58.293Z,25
2023-01-17T07:59:58.261Z,20
2023-01-17T08:00:58.580Z,25
2023-01-17T08:01:58.797Z,25
2023-01-17T08:02:57.947Z,25
2023-01-17T08:03:58.521Z,20
2023-01-17T08:04:57.612Z,20
2023-01-17T08:05:58.572Z,20
2023-01-17T08:06:58.111Z,20
2023-01-17T08:07:58.372Z,20
2023-01-17T08:08:57.837Z,20
2023-01-17T08:09:58.296Z,25
2023-01-17T08:10:57.765Z,25
2023-01-17T08:11:57.741Z,25
2023-01-17T08:12:58.290Z,25
2023-01-17T08:13:57.692Z,30
2023-01-17T08:14:57.688Z,35
2023-01-17T08:15:57.989Z,40
2023-01-17T08:16:58.150Z,45
2023-01-17T08:17:57.934Z,45
2023-01-17T08:18:57.353Z,45
2023-01-17T08:19:58.117Z,50
2023-01-17T08:20:58.195Z,50
2023-01-17T08:21:58.185Z,55
2023-01-17T08:22:57.784Z,55
2023-01-17T08:23:58.100Z,55
2023-01-17T08:24:57.245Z,50
2023-01-17T08:25:57.984Z,55
2023-01-17T08:26:57.441Z,60
2023-01-17T08:27:57.710Z,60
2023-01-17T08:28:57.453Z,60
2023-01-17T08:29:57.984Z,60
2023-01-17T08:30:58.228Z,65
2023-01-17T08:31:58.393Z,65
2023-01-17T08:32:57.915Z,55
2023-01-17T08:33:58.084Z,65
2023-01-17T08:34:58.406Z,80
2023-01-17T08:35:58.226Z,90
2023-01-17T08:36:57.862Z,80
2023-01-17T08:37:58.216Z,70
2023-01-17T08:38:57.899Z,75
2023-01-17T08:39:57.524Z,75
2023-01-17T08:40:57.753Z,70
2023-01-17T08:41:57.772Z,75
2023-01-17T08:42:57.755Z,70
2023-01-17T08:43:57.211Z,75
2023-01-17T08:44:57.680Z,70
2023-01-17T08:45:58.259Z,75
2023-01-17T08:46:57.433Z,65
2023-01-17T08:47:57.412Z,65
2023-01-17T08:48:57.867Z,60
2023-01-17T08:49:57.612Z,55
2023-01-17T08:50:57.840Z,55
2023-01-17T08:51:57.861Z,55
2023-01-17T08:52:59.102Z,55
2023-01-17T08:53:57.916Z,55
2023-01-17T08:54:57.534Z,55
2023-01-17T08:55:57.484Z,55
2023-01-17T08:56:57.822Z,55
2023-01-17T08:57:57.447Z,60
2023-01-17T08:58:57.421Z,55
2023-01-17T08:59:57.151Z,55
2023-01-17T09:00:58.016Z,55
2023-01-17T09:01:57.854Z,55
2023-01-17T09:02:57.089Z,60
2023-01-17T09:03:57.579Z,70
2023-01-17T09:04:57.325Z,75
2023-01-17T09:05:56.774Z,75
2023-01-17T09:06:56.996Z,75
2023-01-17T09:07:57.320Z,65
2023-01-17T09:08:57.417Z,60
2023-01-17T09:09:57.705Z,60
2023-01-17T09:10:57.440Z,60
2023-01-17T09:11:56.888Z,55
2023-01-17T09:12:57.137Z,55
2023-01-17T09:13:57.106Z,60
2023-01-17T09:14:56.837Z,60
2023-01-17T09:15:57.084Z,60
2023-01-17T09:16:56.966Z,60
2023-01-17T09:17:57.071Z,60
2023-01-17T09:18:56.804Z,55
2023-01-17T09:19:57.029Z,60
2023-01-17T09:20:56.472Z,60
2023-01-17T09:21:57.229Z,60
2023-01-17T09:22:57.216Z,60
2023-01-17T09:23:56.912Z,60
2023-01-17T09:24:56.905Z,60
2023-01-17T09:25:58.273Z,60
2023-01-17T09:26:56.861Z,60
2023-01-17T09:27:56.646Z,65
2023-01-17T09:28:56.850Z,60
2023-01-17T09:29:56.792Z,60
2023-01-17T09:30:57.068Z,60
2023-01-17T09:31:56.820Z,65
2023-01-17T09:32:57.005Z,65
2023-01-17T09:33:56.119Z,65
2023-01-17T09:34:56.917Z,65
2023-01-17T09:35:56.932Z,65
2023-01-17T09:36:56.664Z,65
2023-01-17T09:37:59.528Z,70
2023-01-17T09:38:56.897Z,70
2023-01-17T09:39:56.355Z,75
2023-01-17T09:40:56.705Z,75
2023-01-17T09:41:56.967Z,70
2023-01-17T09:42:56.567Z,70
2023-01-17T09:43:56.778Z,80
2023-01-17T09:44:56.526Z,85
2023-01-17T09:45:56.273Z,80
2023-01-17T09:46:56.592Z,90
2023-01-17T09:47:56.717Z,95
2023-01-17T09:48:56.684Z,110
2023-01-17T09:49:56.478Z,95
2023-01-17T09:50:55.897Z,80
2023-01-17T09:51:56.702Z,75
2023-01-17T09:52:56.097Z,80
2023-01-17T09:53:56.181Z,85
2023-01-17T09:54:56.601Z,100
2023-01-17T09:55:56.552Z,130
2023-01-17T09:56:55.997Z,130
2023-01-17T09:57:57.358Z,115
2023-01-17T09:58:56.947Z,105
2023-01-17T10:00:11.618Z,110
2023-01-17T10:00:57.552Z,110
2023-01-17T10:01:57.901Z,135
2023-01-17T10:02:58.049Z,115
2023-01-17T10:03:57.552Z,115
2023-01-17T10:04:57.001Z,105
2023-01-17T10:05:56.843Z,105
2023-01-17T10:06:57.047Z,100
2023-01-17T10:07:56.500Z,100
2023-01-17T10:08:57.044Z,90
2023-01-17T10:09:56.485Z,80
2023-01-17T10:10:56.726Z,80
2023-01-17T10:11:56.948Z,80
2023-01-17T10:12:56.919Z,75
2023-01-17T10:13:57.075Z,75
2023-01-17T10:14:56.123Z,80
2023-01-17T10:15:56.737Z,80
2023-01-17T10:16:56.910Z,90
2023-01-17T10:17:56.592Z,100
2023-01-17T10:18:56.316Z,105
2023-01-17T10:19:56.541Z,105
2023-01-17T10:20:56.252Z,110
2023-01-17T10:21:56.811Z,115
2023-01-17T10:22:56.740Z,130
2023-01-17T10:23:56.367Z,110
2023-01-17T10:24:55.928Z,105
2023-01-17T10:25:56.914Z,100
2023-01-17T10:26:56.443Z,100
2023-01-17T10:27:56.375Z,100
2023-01-17T10:28:56.159Z,125
2023-01-17T10:29:56.743Z,145
2023-01-17T10:30:56.151Z,140
2023-01-17T10:31:56.300Z,130
2023-01-17T10:32:56.600Z,110
2023-01-17T10:33:56.273Z,100
2023-01-17T10:34:56.363Z,90
2023-01-17T10:35:56.499Z,80
2023-01-17T10:36:56.203Z,75
2023-01-17T10:37:56.445Z,85
2023-01-17T10:38:56.194Z,85
2023-01-17T10:39:56.410Z,85
2023-01-17T10:40:55.916Z,75
2023-01-17T10:41:56.103Z,75
2023-01-17T10:42:58.542Z,105
2023-01-17T10:43:56.081Z,125
2023-01-17T10:44:55.815Z,140
2023-01-17T10:45:57.077Z,145
2023-01-17T10:46:56.032Z,155
2023-01-17T10:47:55.477Z,140
2023-01-17T10:48:56.228Z,130
2023-01-17T10:49:56.051Z,115
2023-01-17T10:50:55.669Z,85
2023-01-17T10:51:56.166Z,100
2023-01-17T10:52:56.151Z,100
2023-01-17T10:53:56.133Z,110
2023-01-17T10:54:55.881Z,115
2023-01-17T10:55:56.097Z,130
2023-01-17T10:56:55.566Z,120
2023-01-17T10:57:56.103Z,105
2023-01-17T10:58:55.540Z,110
2023-01-17T10:59:56.029Z,130
2023-01-17T11:00:55.535Z,150
2023-01-17T11:01:58.622Z,140
2023-01-17T11:02:56.223Z,140
2023-01-17T11:03:56.126Z,130
2023-01-17T11:04:56.127Z,150
2023-01-17T11:05:56.070Z,165
2023-01-17T11:07:07.681Z,145
2023-01-17T11:07:55.790Z,130
2023-01-17T11:08:55.786Z,140
2023-01-17T11:09:56.004Z,145
2023-01-17T11:10:55.991Z,165
2023-01-17T11:11:55.689Z,145
2023-01-17T11:12:55.962Z,135
2023-01-17T11:13:55.695Z,135
2023-01-17T11:14:55.673Z,150
2023-01-17T11:15:55.957Z,155
2023-01-17T11:16:55.146Z,145
2023-01-17T11:17:55.991Z,145
2023-01-17T11:18:55.334Z,145
2023-01-17T11:19:55.593Z,150
2023-01-17T11:20:55.690Z,145
2023-01-17T11:21:55.719Z,165
2023-01-17T11:22:55.509Z,155
2023-01-17T11:23:55.779Z,130
2023-01-17T11:24:55.271Z,120
2023-01-17T11:25:55.467Z,110
2023-01-17T11:26:55.444Z,105
2023-01-17T11:27:55.190Z,95
2023-01-17T11:28:55.694Z,95
2023-01-17T11:29:55.380Z,100
2023-01-17T11:30:55.935Z,95
2023-01-17T11:31:55.379Z,95
2023-01-17T11:32:55.637Z,110
2023-01-17T11:33:55.858Z,110
2023-01-17T11:34:55.306Z,110
2023-01-17T11:35:55.319Z,115
2023-01-17T11:36:55.375Z,120
2023-01-17T11:37:55.263Z,120
2023-01-17T11:38:55.007Z,115
2023-01-17T11:39:55.235Z,110
2023-01-17T11:40:55.080Z,110
2023-01-17T11:41:55.215Z,115
2023-01-17T11:42:54.684Z,120
2023-01-17T11:43:55.196Z,110
2023-01-17T11:44:55.126Z,115
2023-01-17T11:45:55.432Z,105
2023-01-17T11:46:55.336Z,110
2023-01-17T11:47:54.837Z,125
2023-01-17T11:48:58.313Z,115
2023-01-17T11:49:55.482Z,110
2023-01-17T11:50:55.059Z,105
2023-01-17T11:51:54.982Z,115
2023-01-17T11:52:54.202Z,105
2023-01-17T11:53:55.241Z,100
2023-01-17T11:54:55.015Z,100
2023-01-17T11:55:55.263Z,105
2023-01-17T11:56:54.951Z,130
2023-01-17T11:57:57.085Z,100
2023-01-17T11:58:54.624Z,85
2023-01-17T11:59:54.423Z,80
2023-01-17T12:00:55.366Z,80
2023-01-17T12:01:55.308Z,80
2023-01-17T12:02:54.316Z,80
2023-01-17T12:03:54.792Z,80
2023-01-17T12:04:54.760Z,80
2023-01-17T12:05:55.180Z,75
2023-01-17T12:07:06.652Z,75
2023-01-17T12:07:54.212Z,75
2023-01-17T12:08:54.704Z,75
2023-01-17T12:09:54.926Z,75
2023-01-17T12:10:54.404Z,75
2023-01-17T12:11:54.918Z,75
2023-01-17T12:12:54.646Z,70
2023-01-17T12:13:54.401Z,70
2023-01-17T12:14:54.853Z,75
2023-01-17T12:15:54.896Z,70
2023-01-17T12:16:54.589Z,70
2023-01-17T12:17:54.767Z,75
2023-01-17T12:18:54.296Z,80
2023-01-17T12:19:54.460Z,80
2023-01-17T12:20:54.499Z,80
2023-01-17T12:21:54.788Z,80
2023-01-17T12:22:53.979Z,85
2023-01-17T12:23:54.700Z,90
2023-01-17T12:24:54.685Z,95
2023-01-17T12:25:54.662Z,90
2023-01-17T12:26:54.623Z,80
2023-01-17T12:27:54.107Z,75
2023-01-17T12:28:54.429Z,70
2023-01-17T12:29:54.340Z,70
2023-01-17T12:30:54.077Z,70
2023-01-17T12:31:54.334Z,70
2023-01-17T12:32:54.629Z,70
2023-01-17T12:33:54.295Z,60
2023-01-17T12:34:54.276Z,65
2023-01-17T12:35:54.479Z,70
2023-01-17T12:36:56.325Z,75
2023-01-17T12:38:12.615Z,85
2023-01-17T12:38:54.205Z,85
2023-01-17T12:39:54.145Z,90
2023-01-17T12:40:54.440Z,90
2023-01-17T12:41:54.357Z,80
2023-01-17T12:42:56.005Z,85
2023-01-17T12:43:53.829Z,80
2023-01-17T12:44:54.083Z,80
2023-01-17T12:45:54.254Z,80
2023-01-17T12:46:54.354Z,75
2023-01-17T12:47:54.285Z,75
2023-01-17T12:48:53.954Z,75
2023-01-17T12:49:54.178Z,75
2023-01-17T12:50:53.917Z,75
2023-01-17T12:51:55.420Z,75
2023-01-17T12:52:53.956Z,65
2023-01-17T12:53:54.226Z,65
2023-01-17T12:54:53.639Z,65
2023-01-17T12:55:53.808Z,70
2023-01-17T12:56:53.796Z,75
2023-01-17T12:57:54.021Z,75
2023-01-17T12:58:53.242Z,70
2023-01-17T12:59:53.506Z,65
2023-01-17T13:00:54.560Z,65
2023-01-17T13:01:54.434Z,60
2023-01-17T13:02:53.438Z,60
2023-01-17T13:03:56.085Z,55
2023-01-17T13:05:07.697Z,55
2023-01-17T13:05:53.625Z,60
2023-01-17T13:06:53.874Z,65
2023-01-17T13:07:53.596Z,65
2023-01-17T13:08:53.886Z,75
2023-01-17T13:09:53.907Z,75
2023-01-17T13:10:53.616Z,75
2023-01-17T13:11:53.553Z,70
2023-01-17T13:12:53.735Z,70
2023-01-17T13:13:53.231Z,70
2023-01-17T13:14:52.979Z,70
2023-01-17T13:15:53.735Z,75
2023-01-17T13:16:53.420Z,80
2023-01-17T13:17:53.401Z,70
2023-01-17T13:18:53.150Z,65
2023-01-17T13:19:53.601Z,65
2023-01-17T13:20:53.350Z,65
2023-01-17T13:21:53.130Z,60
2023-01-17T13:22:53.296Z,55
2023-01-17T13:23:53.022Z,55
2023-01-17T13:24:52.777Z,50
2023-01-17T13:25:53.605Z,50
2023-01-17T13:26:53.250Z,50
2023-01-17T13:27:53.462Z,50
2023-01-17T13:28:54.954Z,50
2023-01-17T13:29:53.194Z,50
2023-01-17T13:30:53.140Z,50
2023-01-17T13:31:53.371Z,55
2023-01-17T13:32:53.399Z,60
2023-01-17T13:33:53.137Z,60
2023-01-17T13:34:53.088Z,60
2023-01-17T13:35:53.360Z,50
2023-01-17T13:36:52.537Z,50
2023-01-17T13:37:53.321Z,50
2023-01-17T13:38:52.736Z,50
2023-01-17T13:39:53.222Z,60
2023-01-17T13:40:52.745Z,65
2023-01-17T13:41:53.366Z,65
2023-01-17T13:42:53.230Z,60
2023-01-17T13:43:52.927Z,55
2023-01-17T13:44:52.672Z,60
2023-01-17T13:45:53.185Z,60
2023-01-17T13:46:52.899Z,60
2023-01-17T13:47:52.844Z,60
2023-01-17T13:48:52.819Z,60
2023-01-17T13:49:52.901Z,60
2023-01-17T13:50:52.538Z,60
2023-01-17T13:51:52.481Z,60
2023-01-17T13:52:52.988Z,55
2023-01-17T13:53:52.709Z,55
2023-01-17T13:54:52.175Z,55
2023-01-17T13:55:52.945Z,55
2023-01-17T13:56:52.964Z,55
2023-01-17T13:57:53.123Z,55
2023-01-17T13:58:53.049Z,55
2023-01-17T13:59:52.624Z,55
2023-01-17T14:00:53.094Z,55
2023-01-17T14:01:53.411Z,55
2023-01-17T14:02:55.261Z,55
2023-01-17T14:03:52.284Z,55
2023-01-17T14:04:52.245Z,50
2023-01-17T14:05:52.720Z,50
2023-01-17T14:06:52.472Z,50
2023-01-17T14:07:52.696Z,50
2023-01-17T14:08:52.655Z,50
2023-01-17T14:09:52.499Z,50
2023-01-17T14:10:52.461Z,50
2023-01-17T14:11:52.633Z,50
2023-01-17T14:12:52.470Z,50
2023-01-17T14:13:52.676Z,50
2023-01-17T14:14:51.978Z,50
2023-01-17T14:15:52.087Z,50
2023-01-17T14:16:55.061Z,45
2023-01-17T14:17:52.512Z,50
2023-01-17T14:18:52.507Z,50
2023-01-17T14:19:52.471Z,50
2023-01-17T14:20:52.455Z,50
2023-01-17T14:21:52.204Z,45
2023-01-17T14:22:52.661Z,40
2023-01-17T14:23:52.492Z,45
2023-01-17T14:24:51.882Z,45
2023-01-17T14:25:52.094Z,45
2023-01-17T14:26:52.654Z,45
2023-01-17T14:27:52.344Z,50
2023-01-17T14:28:52.689Z,50
2023-01-17T14:29:52.673Z,50
2023-01-17T14:30:52.039Z,50
2023-01-17T14:31:52.673Z,50
2023-01-17T14:32:52.218Z,50
2023-01-17T14:33:51.957Z,45
2023-01-17T14:34:52.481Z,45
2023-01-17T14:35:52.439Z,45
2023-01-17T14:36:52.194Z,40
2023-01-17T14:37:52.179Z,40
2023-01-17T14:38:52.370Z,45
2023-01-17T14:39:52.127Z,45
2023-01-17T14:40:52.128Z,45
2023-01-17T14:41:51.836Z,45
2023-01-17T14:42:52.062Z,45
2023-01-17T14:43:52.061Z,50
2023-01-17T14:44:52.075Z,50